createdAt,value
2022-10-10T00:00:06.602Z,64.90
2022-10-10T00:05:32.476Z,69.00
2022-10-10T00:10:38.742Z,71.60
2022-10-10T00:15:48.723Z,62.00
2022-10-10T00:20:55.428Z,57.20
2022-10-10T00:26:04.425Z,62.10
2022-10-10T00:31:13.006Z,63.80
2022-10-10T00:36:20.568Z,58.50
2022-10-10T00:41:27.027Z,59.50
2022-10-10T00:46:32.946Z,61.60
2022-10-10T00:51:39.246Z,58.10
2022-10-10T00:56:48.705Z,55.50
2022-10-10T01:01:54.448Z,56.70
2022-10-10T01:07:01.619Z,49.90
2022-10-10T01:12:17.626Z,50.10
2022-10-10T01:17:30.743Z,53.00
2022-10-10T01:22:50.097Z,51.00
2022-10-10T01:28:02.480Z,49.20
2022-10-10T01:33:13.287Z,43.60
2022-10-10T01:38:29.426Z,45.50
2022-10-10T01:43:37.334Z,44.20
2022-10-10T01:48:46.011Z,47.80
2022-10-10T01:53:59.836Z,42.70
2022-10-10T01:59:15.852Z,39.60
2022-10-10T02:04:30.875Z,46.60
2022-10-10T02:09:40.018Z,50.50
2022-10-10T02:14:51.055Z,43.40
2022-10-10T02:20:00.188Z,39.20
2022-10-10T02:25:07.516Z,41.50
2022-10-10T02:30:14.586Z,47.70
2022-10-10T02:35:23.856Z,37.10
2022-10-10T02:40:32.656Z,39.20
2022-10-10T02:45:40.516Z,46.40
2022-10-10T02:50:46.587Z,42.50
2022-10-10T02:55:52.467Z,50.70
2022-10-10T03:00:58.471Z,46.60
2022-10-10T03:06:05.340Z,41.40
2022-10-10T03:11:11.366Z,40.20
2022-10-10T03:16:17.236Z,41.80
2022-10-10T03:21:23.144Z,50.00
2022-10-10T03:26:28.935Z,40.50
2022-10-10T03:31:34.828Z,40.10
2022-10-10T03:36:40.780Z,40.50
2022-10-10T03:41:46.651Z,59.80
2022-10-10T03:46:52.493Z,80.30
2022-10-10T03:52:00.502Z,42.20
2022-10-10T03:57:06.244Z,46.30
2022-10-10T04:02:11.933Z,51.60
2022-10-10T04:07:17.856Z,47.40
2022-10-10T04:12:24.294Z,47.10
2022-10-10T04:17:30.009Z,36.80
2022-10-10T04:22:35.828Z,55.00
2022-10-10T04:27:43.660Z,38.30
2022-10-10T04:32:49.623Z,36.40
2022-10-10T04:37:55.703Z,32.90
2022-10-10T04:43:01.479Z,39.10
2022-10-10T04:48:07.217Z,53.90
2022-10-10T04:53:12.950Z,35.40
2022-10-10T04:58:19.504Z,37.40
2022-10-10T05:03:26.260Z,42.80
2022-10-10T05:08:31.996Z,47.70
2022-10-10T05:13:37.987Z,50.00
2022-10-10T05:18:43.893Z,42.40
2022-10-10T05:23:49.581Z,35.60
2022-10-10T05:28:55.876Z,33.90
2022-10-10T05:34:01.702Z,30.40
2022-10-10T05:39:07.823Z,33.00
2022-10-10T05:44:13.541Z,27.10
2022-10-10T05:49:19.785Z,31.60
2022-10-10T05:54:25.698Z,37.00
2022-10-10T05:59:31.530Z,43.10
2022-10-10T06:04:37.436Z,34.50
2022-10-10T06:09:43.118Z,33.10
2022-10-10T06:14:48.992Z,33.90
2022-10-10T06:19:55.068Z,24.60
2022-10-10T06:25:01.154Z,16.20
2022-10-10T06:30:10.581Z,16.50
2022-10-10T06:35:16.452Z,15.60
2022-10-10T06:40:22.359Z,15.10
2022-10-10T06:45:28.191Z,20.10
2022-10-10T06:50:34.068Z,22.10
2022-10-10T06:55:47.561Z,19.40
2022-10-10T07:00:57.150Z,16.90
2022-10-10T07:06:04.279Z,23.40
2022-10-10T07:11:10.285Z,17.70
2022-10-10T07:16:16.105Z,14.70
2022-10-10T07:21:22.730Z,12.10
2022-10-10T07:26:31.098Z,11.50
2022-10-10T07:31:36.901Z,11.90
2022-10-10T07:36:43.412Z,12.00
2022-10-10T07:41:49.540Z,9.50
2022-10-10T07:46:55.762Z,9.70
2022-10-10T07:52:01.941Z,11.20
2022-10-10T07:57:07.867Z,14.30
2022-10-10T08:02:13.823Z,17.40
2022-10-10T08:07:19.723Z,11.50
2022-10-10T08:12:25.978Z,14.00
2022-10-10T08:17:32.244Z,17.60
2022-10-10T08:22:37.975Z,9.20
2022-10-10T08:27:43.786Z,8.90
2022-10-10T08:32:49.771Z,9.50
2022-10-10T08:37:56.178Z,9.00
2022-10-10T08:43:07.511Z,9.60
2022-10-10T08:48:17.143Z,10.60
2022-10-10T08:53:29.232Z,8.60
2022-10-10T08:58:38.501Z,8.60
2022-10-10T09:03:48.137Z,7.60
2022-10-10T09:09:01.271Z,9.30
2022-10-10T09:14:17.481Z,6.90
2022-10-10T09:19:37.775Z,7.50
2022-10-10T09:24:49.259Z,7.10
2022-10-10T09:30:03.027Z,8.50
2022-10-10T09:35:19.155Z,7.70
2022-10-10T09:40:30.133Z,5.30
2022-10-10T09:45:41.839Z,7.90
2022-10-10T09:50:48.076Z,7.20
2022-10-10T09:55:55.064Z,5.90
2022-10-10T10:01:15.333Z,7.50
2022-10-10T10:06:21.543Z,6.40
2022-10-10T10:11:32.121Z,3.80
2022-10-10T10:16:39.985Z,6.90
2022-10-10T10:21:51.972Z,4.50
2022-10-10T10:27:08.094Z,7.20
2022-10-10T10:32:26.487Z,5.30
2022-10-10T10:37:47.122Z,4.30
2022-10-10T10:43:15.484Z,2.60
2022-10-10T10:48:33.107Z,7.30
2022-10-10T10:53:46.636Z,4.80
2022-10-10T10:59:30.420Z,5.50
2022-10-10T11:05:18.389Z,4.90
2022-10-10T11:10:24.389Z,5.50
2022-10-10T11:16:04.778Z,3.40
2022-10-10T11:21:08.268Z,8.10
2022-10-10T11:26:22.263Z,5.50
2022-10-10T11:31:31.907Z,4.30
2022-10-10T11:36:43.201Z,5.80
2022-10-10T11:41:55.591Z,3.70
2022-10-10T11:47:10.857Z,3.60
2022-10-10T11:52:38.680Z,6.90
2022-10-10T11:57:50.171Z,5.40
2022-10-10T12:02:56.977Z,4.30
2022-10-10T12:08:17.817Z,4.40
2022-10-10T12:13:31.800Z,5.60
2022-10-10T12:18:44.494Z,3.90
2022-10-10T12:24:00.390Z,5.60
2022-10-10T12:29:10.277Z,4.10
2022-10-10T12:34:43.811Z,5.20
2022-10-10T12:40:21.434Z,7.40
2022-10-10T12:46:01.415Z,6.40
2022-10-10T12:51:17.289Z,6.20
2022-10-10T12:56:37.654Z,4.00
2022-10-10T13:01:47.847Z,4.70
2022-10-10T13:06:56.654Z,2.40
2022-10-10T13:12:04.422Z,4.30
2022-10-10T13:17:27.108Z,7.40
2022-10-10T13:22:36.372Z,6.10
2022-10-10T13:27:42.672Z,7.70
2022-10-10T13:32:49.283Z,8.30
2022-10-10T13:37:57.597Z,5.70
2022-10-10T13:43:03.745Z,3.20
2022-10-10T13:48:25.436Z,2.30
2022-10-10T13:53:45.839Z,4.10
2022-10-10T13:58:56.021Z,6.50
2022-10-10T14:04:07.974Z,3.60
2022-10-10T14:09:19.829Z,7.60
2022-10-10T14:14:32.429Z,35.70
2022-10-10T14:19:38.843Z,5.60
2022-10-10T14:24:44.611Z,5.20
2022-10-10T14:29:50.894Z,9.60
2022-10-10T14:34:56.753Z,5.20
2022-10-10T14:40:03.570Z,3.90
2022-10-10T14:45:15.109Z,11.60
2022-10-10T14:50:24.450Z,3.20
2022-10-10T14:55:30.158Z,10.90
2022-10-10T15:00:36.202Z,4.20
2022-10-10T15:05:42.205Z,5.00
2022-10-10T15:10:48.261Z,3.80
2022-10-10T15:15:54.504Z,8.10
2022-10-10T15:21:00.808Z,6.60
2022-10-10T15:26:07.729Z,7.70
2022-10-10T15:31:13.528Z,9.20
2022-10-10T15:36:19.479Z,9.50
2022-10-10T15:41:26.180Z,11.90
2022-10-10T15:46:32.077Z,9.40
2022-10-10T15:51:37.969Z,8.60
2022-10-10T15:56:43.959Z,10.20
2022-10-10T16:01:49.880Z,11.20
2022-10-10T16:12:22.481Z,11.70
2022-10-10T16:17:28.308Z,11.10
2022-10-10T16:22:34.327Z,13.30
2022-10-10T16:27:40.245Z,33.10
2022-10-10T16:32:46.104Z,13.90
2022-10-10T16:37:52.093Z,20.90
2022-10-10T16:42:57.890Z,21.60
2022-10-10T16:48:03.563Z,33.20
2022-10-10T16:53:11.212Z,23.70
2022-10-10T16:58:17.027Z,24.30
2022-10-10T17:03:25.043Z,27.20
2022-10-10T17:08:32.335Z,16.30
2022-10-10T17:13:39.830Z,11.70
2022-10-10T17:18:47.496Z,17.20
2022-10-10T17:23:54.132Z,12.70
2022-10-10T17:29:00.449Z,11.20
2022-10-10T17:34:07.373Z,11.10
2022-10-10T17:39:14.243Z,15.00
2022-10-10T17:45:40.273Z,16.90
2022-10-10T17:50:47.913Z,15.40
2022-10-10T17:55:53.924Z,14.50
2022-10-10T18:01:03.873Z,16.10
2022-10-10T18:06:12.154Z,17.80
2022-10-10T18:11:20.770Z,20.40
2022-10-10T18:16:27.279Z,22.60
2022-10-10T18:21:33.398Z,16.00
2022-10-10T18:26:39.350Z,18.40
2022-10-10T18:31:45.322Z,13.10
2022-10-10T18:36:51.737Z,15.50
2022-10-10T18:41:57.575Z,19.20
2022-10-10T18:47:03.351Z,15.80
2022-10-10T18:52:10.350Z,18.30
2022-10-10T18:57:16.204Z,21.70
2022-10-10T19:02:21.933Z,22.20
2022-10-10T19:07:27.899Z,18.80
2022-10-10T19:12:33.819Z,20.60
2022-10-10T19:17:39.561Z,22.30
2022-10-10T19:22:45.279Z,20.40
2022-10-10T19:27:51.074Z,18.10
2022-10-10T19:32:57.907Z,18.90
2022-10-10T19:38:03.658Z,21.20
2022-10-10T19:43:09.814Z,17.10
2022-10-10T19:48:16.145Z,20.60
2022-10-10T19:53:21.912Z,19.90
2022-10-10T19:58:28.541Z,21.60
2022-10-10T20:03:34.672Z,17.50
2022-10-10T20:08:40.490Z,22.70
2022-10-10T20:13:46.491Z,21.00
2022-10-10T20:18:52.627Z,19.00
2022-10-10T20:23:59.135Z,18.80
2022-10-10T20:29:05.775Z,19.80
2022-10-10T20:34:12.318Z,18.00
2022-10-10T20:39:19.794Z,23.40
2022-10-10T20:44:25.802Z,21.50
2022-10-10T20:49:31.640Z,23.60
2022-10-10T20:54:37.637Z,23.70
2022-10-10T20:59:43.700Z,18.30
2022-10-10T21:04:49.605Z,17.70
2022-10-10T21:09:55.490Z,22.00
2022-10-10T21:15:03.029Z,21.90
2022-10-10T21:20:10.184Z,24.00
2022-10-10T21:25:16.238Z,20.70
2022-10-10T21:30:22.206Z,25.10
2022-10-10T21:35:28.169Z,30.60
2022-10-10T21:40:36.381Z,26.20
2022-10-10T21:45:42.433Z,22.10
2022-10-10T21:50:48.263Z,21.10
2022-10-10T21:55:54.442Z,19.80
2022-10-10T22:01:00.296Z,17.70
2022-10-10T22:06:08.311Z,19.50
2022-10-10T22:11:16.355Z,14.40
2022-10-10T22:16:22.630Z,18.80
2022-10-10T22:21:31.970Z,17.20
2022-10-10T22:26:38.496Z,19.60
2022-10-10T22:31:44.232Z,17.00
2022-10-10T22:36:50.053Z,18.90
2022-10-10T22:41:55.888Z,19.20
2022-10-10T22:47:01.642Z,15.40
2022-10-10T22:52:09.306Z,15.90
2022-10-10T22:57:15.286Z,17.50
2022-10-10T23:02:21.076Z,23.20
2022-10-10T23:07:27.087Z,15.00
2022-10-10T23:12:32.789Z,20.70
2022-10-10T23:17:38.518Z,18.00
2022-10-10T23:22:44.325Z,13.20
2022-10-10T23:27:50.044Z,18.70
2022-10-10T23:32:55.810Z,17.30
2022-10-10T23:38:01.654Z,14.20
2022-10-10T23:43:07.710Z,13.00
2022-10-10T23:48:13.419Z,18.10
2022-10-10T23:53:19.583Z,13.20
2022-10-10T23:58:25.439Z,13.70
